Time;durP1;ratioP1;P1;durP2;ratioP2;P2;SDS_P1;SDS_P2;PMS_P1;PMS_P2;Temp;Humidity;BMP_temperature;BMP_pressure;BME280_temperature;BME280_humidity;BME280_pressure;Samples;Min_cycle;Max_cycle;Signal;HPM_P1;HPM_P2
2022/12/20 00:02:23;;;;;;;28.10;14.60;;;;;;;;;;5094026;28;20028;-73
2022/12/20 00:04:48;;;;;;;27.50;14.32;;;;;;;;;;5094152;28;20468;-73
2022/12/20 00:07:14;;;;;;;24.40;12.32;;;;;;;;;;5095124;28;20028;-75
2022/12/20 00:09:39;;;;;;;25.60;13.75;;;;;;;;;;5093680;28;20016;-73
2022/12/20 00:12:05;;;;;;;27.23;15.15;;;;;;;;;;5093902;28;20012;-73
2022/12/20 00:14:30;;;;;;;23.83;14.35;;;;;;;;;;5095743;28;20016;-74
2022/12/20 00:16:56;;;;;;;28.10;15.43;;;;;;;;;;5093550;28;20020;-75
2022/12/20 00:19:21;;;;;;;27.13;15.93;;;;;;;;;;5095317;28;20049;-73
2022/12/20 00:21:47;;;;;;;27.38;15.55;;;;;;;;;;5093501;28;20035;-75
2022/12/20 00:24:13;;;;;;;29.77;16.17;;;;;;;;;;5093605;28;20013;-75
2022/12/20 00:26:38;;;;;;;32.35;17.02;;;;;;;;;;5093264;28;20028;-73
2022/12/20 00:29:05;;;;;;;27.58;14.95;;;;;;;;;;5093369;28;20028;-73
2022/12/20 00:31:31;;;;;;;25.73;15.18;;;;;;;;;;5093430;28;20016;-74
2022/12/20 00:33:57;;;;;;;26.95;15.38;;;;;;;;;;5094815;28;20384;-74
2022/12/20 00:36:23;;;;;;;25.95;15.15;;;;;;;;;;5094687;28;20031;-73
2022/12/20 00:38:49;;;;;;;25.63;14.73;;;;;;;;;;5094725;28;20023;-74
2022/12/20 00:41:17;;;;;;;29.00;17.45;;;;;;;;;;5092704;28;20024;-74
2022/12/20 00:43:43;;;;;;;28.17;14.52;;;;;;;;;;5093182;28;20020;-74
2022/12/20 00:46:10;;;;;;;30.30;15.93;;;;;;;;;;5093199;28;20054;-75
2022/12/20 00:48:36;;;;;;;25.77;13.88;;;;;;;;;;5093047;28;20028;-73
2022/12/20 00:51:03;;;;;;;25.85;15.85;;;;;;;;;;5092787;28;20020;-74
2022/12/20 00:53:29;;;;;;;29.73;15.50;;;;;;;;;;5094263;28;20460;-74
2022/12/20 00:55:55;;;;;;;27.77;15.75;;;;;;;;;;5092582;28;20153;-73
2022/12/20 00:58:20;;;;;;;29.38;16.42;;;;;;;;;;5092678;28;20065;-73
2022/12/20 01:00:46;;;;;;;24.88;15.27;;;;;;;;;;5092606;28;20499;-75
2022/12/20 01:03:11;;;;;;;30.30;16.15;;;;;;;;;;5093599;28;20028;-75
2022/12/20 01:05:36;;;;;;;28.67;16.00;;;;;;;;;;5092469;28;20030;-75
2022/12/20 01:08:02;;;;;;;23.58;14.95;;;;;;;;;;5093764;28;20016;-74
2022/12/20 01:10:27;;;;;;;27.02;15.80;;;;;;;;;;5092374;28;20051;-75
2022/12/20 01:12:53;;;;;;;25.13;14.57;;;;;;;;;;5092772;28;20024;-76
2022/12/20 01:15:18;;;;;;;27.95;16.90;;;;;;;;;;5092475;28;20464;-74
2022/12/20 01:17:44;;;;;;;26.80;16.45;;;;;;;;;;5092682;28;20031;-74
2022/12/20 01:20:10;;;;;;;29.90;18.05;;;;;;;;;;5093030;28;20020;-75
2022/12/20 01:22:36;;;;;;;31.58;16.48;;;;;;;;;;5092295;28;20051;-74
2022/12/20 01:25:01;;;;;;;33.45;17.05;;;;;;;;;;5091973;28;20393;-74
2022/12/20 01:27:27;;;;;;;28.73;16.67;;;;;;;;;;5092527;28;20069;-75
2022/12/20 01:29:53;;;;;;;31.52;17.15;;;;;;;;;;5093846;28;20020;-75
2022/12/20 01:32:19;;;;;;;33.53;17.67;;;;;;;;;;5093404;28;20032;-75
2022/12/20 01:34:44;;;;;;;27.48;17.30;;;;;;;;;;5093236;28;20023;-75
2022/12/20 01:37:10;;;;;;;31.90;17.88;;;;;;;;;;5091800;28;20381;-75
2022/12/20 01:39:35;;;;;;;34.22;17.02;;;;;;;;;;5091686;28;20071;-73
2022/12/20 01:42:03;;;;;;;32.47;17.90;;;;;;;;;;5091921;28;20031;-73
2022/12/20 01:44:29;;;;;;;31.40;18.23;;;;;;;;;;5093351;28;20095;-73
2022/12/20 01:46:55;;;;;;;31.17;16.20;;;;;;;;;;5091714;28;20158;-74
2022/12/20 01:49:29;;;;;;;33.20;18.17;;;;;;;;;;5091582;28;20062;-75
2022/12/20 01:52:05;;;;;;;30.27;16.98;;;;;;;;;;5091775;28;20123;-75
2022/12/20 01:54:34;;;;;;;32.95;17.67;;;;;;;;;;5093340;28;20027;-73
2022/12/20 01:57:07;;;;;;;34.80;19.63;;;;;;;;;;5091562;28;20024;-74
2022/12/20 01:59:36;;;;;;;36.90;19.45;;;;;;;;;;5091343;28;20048;-74
2022/12/20 02:02:03;;;;;;;39.42;20.05;;;;;;;;;;5091426;28;20028;-74
2022/12/20 02:04:29;;;;;;;34.72;18.92;;;;;;;;;;5091349;28;20027;-74
2022/12/20 02:06:56;;;;;;;35.22;19.10;;;;;;;;;;5091689;28;20473;-74
2022/12/20 02:09:23;;;;;;;34.58;18.55;;;;;;;;;;5091526;28;20468;-75
2022/12/20 02:11:48;;;;;;;40.22;20.23;;;;;;;;;;5091594;28;20120;-74
2022/12/20 02:14:14;;;;;;;34.85;18.58;;;;;;;;;;5091464;28;20107;-75
2022/12/20 02:16:51;;;;;;;37.47;19.42;;;;;;;;;;5091445;28;20379;-74
2022/12/20 02:19:19;;;;;;;34.65;17.58;;;;;;;;;;5091205;28;20024;-74
2022/12/20 02:21:48;;;;;;;33.90;18.95;;;;;;;;;;5091516;28;20027;-74
2022/12/20 02:24:28;;;;;;;38.17;19.55;;;;;;;;;;5091509;28;20016;-73
2022/12/20 02:27:21;;;;;;;31.02;18.63;;;;;;;;;;5093499;28;20099;-75
2022/12/20 02:30:05;;;;;;;38.92;19.15;;;;;;;;;;5092912;28;20584;-75
2022/12/20 02:32:40;;;;;;;33.92;17.25;;;;;;;;;;5091007;28;20110;-74
2022/12/20 02:35:07;;;;;;;33.17;19.00;;;;;;;;;;5091033;28;20035;-74
2022/12/20 02:37:32;;;;;;;35.95;18.27;;;;;;;;;;5091204;28;20059;-74
2022/12/20 02:39:57;;;;;;;34.45;17.75;;;;;;;;;;5091179;28;20120;-75
2022/12/20 02:42:25;;;;;;;34.00;18.98;;;;;;;;;;5091805;28;20035;-74
2022/12/20 02:45:18;;;;;;;38.15;19.50;;;;;;;;;;5091675;28;20514;-73
2022/12/20 02:47:49;;;;;;;40.35;19.88;;;;;;;;;;5091916;28;20024;-74
2022/12/20 02:50:31;;;;;;;37.75;19.88;;;;;;;;;;5091682;28;20031;-74
2022/12/20 02:52:57;;;;;;;38.85;18.50;;;;;;;;;;5091722;28;20024;-77
2022/12/20 02:55:27;;;;;;;33.30;17.45;;;;;;;;;;5093144;28;20031;-76
2022/12/20 02:57:59;;;;;;;32.40;18.15;;;;;;;;;;5092033;28;20541;-75
2022/12/20 03:00:24;;;;;;;36.95;17.98;;;;;;;;;;5092444;28;20051;-75
2022/12/20 03:05:43;;;;;;;37.72;19.00;;;;;;;;;;5092532;28;20035;-76
2022/12/20 03:08:08;;;;;;;35.65;19.48;;;;;;;;;;5091693;28;20020;-76
2022/12/20 03:10:33;;;;;;;29.42;15.63;;;;;;;;;;5091549;28;20031;-75
2022/12/20 03:13:00;;;;;;;36.15;18.25;;;;;;;;;;5090870;28;20012;-75
2022/12/20 03:15:25;;;;;;;34.80;16.83;;;;;;;;;;5091087;28;20457;-74
2022/12/20 03:17:51;;;;;;;38.00;19.25;;;;;;;;;;5091015;28;20116;-75
2022/12/20 03:20:16;;;;;;;33.00;17.55;;;;;;;;;;5090720;28;20031;-75
2022/12/20 03:22:42;;;;;;;33.88;18.85;;;;;;;;;;5090972;28;20027;-75
2022/12/20 03:25:07;;;;;;;36.65;18.27;;;;;;;;;;5090764;28;20548;-76
2022/12/20 03:27:33;;;;;;;37.97;18.70;;;;;;;;;;5092122;28;20012;-75
2022/12/20 03:29:58;;;;;;;33.78;18.95;;;;;;;;;;5090860;28;20380;-76
2022/12/20 03:32:23;;;;;;;34.50;19.08;;;;;;;;;;5091317;28;20471;-75
2022/12/20 03:34:49;;;;;;;39.95;19.40;;;;;;;;;;5090965;28;20024;-74
2022/12/20 03:37:15;;;;;;;34.97;18.85;;;;;;;;;;5090507;28;20016;-77
2022/12/20 03:39:41;;;;;;;40.28;19.02;;;;;;;;;;5091005;28;20089;-75
2022/12/20 03:42:07;;;;;;;39.13;19.42;;;;;;;;;;5090421;28;20029;-75
2022/12/20 03:44:33;;;;;;;31.58;16.60;;;;;;;;;;5092886;28;20024;-75
2022/12/20 03:46:59;;;;;;;43.47;19.63;;;;;;;;;;5094366;28;20012;-75
2022/12/20 03:49:26;;;;;;;37.00;18.65;;;;;;;;;;5094400;28;20020;-75
2022/12/20 03:51:51;;;;;;;39.13;19.33;;;;;;;;;;5095563;28;20048;-76
2022/12/20 03:54:17;;;;;;;39.20;19.55;;;;;;;;;;5094332;28;20024;-76
2022/12/20 03:56:42;;;;;;;38.50;19.88;;;;;;;;;;5094075;28;20042;-75
2022/12/20 03:59:07;;;;;;;44.40;19.63;;;;;;;;;;5094866;28;20059;-76
2022/12/20 04:01:37;;;;;;;45.25;21.52;;;;;;;;;;5094123;28;20031;-75
2022/12/20 04:04:03;;;;;;;38.55;18.58;;;;;;;;;;5095644;28;20016;-75
2022/12/20 04:06:28;;;;;;;34.35;18.20;;;;;;;;;;5095245;28;20074;-76
2022/12/20 04:08:54;;;;;;;40.80;21.48;;;;;;;;;;5094626;28;20020;-74
2022/12/20 04:11:19;;;;;;;40.22;19.85;;;;;;;;;;5093585;28;20433;-74
2022/12/20 04:13:49;;;;;;;40.50;20.20;;;;;;;;;;5093664;28;20032;-74
2022/12/20 04:16:15;;;;;;;38.45;18.48;;;;;;;;;;5093907;28;20016;-74
2022/12/20 04:18:40;;;;;;;41.60;19.98;;;;;;;;;;5095030;28;20020;-73
2022/12/20 04:21:06;;;;;;;34.65;18.55;;;;;;;;;;5093388;28;20392;-76
2022/12/20 04:23:33;;;;;;;30.80;16.52;;;;;;;;;;5093343;28;20066;-73
2022/12/20 04:25:58;;;;;;;32.80;17.15;;;;;;;;;;5093350;28;20106;-73
2022/12/20 04:28:23;;;;;;;34.05;18.02;;;;;;;;;;5093142;28;20488;-74
2022/12/20 04:30:49;;;;;;;36.15;18.38;;;;;;;;;;5093491;28;20024;-74
2022/12/20 04:33:14;;;;;;;41.50;18.58;;;;;;;;;;5094127;28;20501;-74
2022/12/20 04:35:40;;;;;;;37.60;19.50;;;;;;;;;;5093372;28;20467;-75
2022/12/20 04:38:05;;;;;;;39.40;21.02;;;;;;;;;;5093039;28;20471;-74
2022/12/20 04:40:30;;;;;;;33.80;17.58;;;;;;;;;;5094598;28;20499;-75
2022/12/20 04:42:56;;;;;;;37.08;18.67;;;;;;;;;;5092796;28;20028;-80
2022/12/20 04:45:21;;;;;;;39.42;19.55;;;;;;;;;;5093177;28;20395;-79
2022/12/20 04:47:47;;;;;;;37.08;18.00;;;;;;;;;;5094379;28;20066;-74
2022/12/20 04:50:12;;;;;;;44.80;21.92;;;;;;;;;;5092686;28;20031;-72
2022/12/20 04:55:22;;;;;;;40.22;19.75;;;;;;;;;;5092882;28;20434;-72
2022/12/20 04:57:48;;;;;;;39.42;19.48;;;;;;;;;;5093883;28;20484;-73
2022/12/20 05:00:14;;;;;;;41.20;18.60;;;;;;;;;;5092465;28;20048;-72
2022/12/20 05:02:40;;;;;;;41.30;19.13;;;;;;;;;;5092603;28;20063;-71
2022/12/20 05:05:06;;;;;;;37.45;18.23;;;;;;;;;;5092456;28;20055;-72
2022/12/20 05:07:31;;;;;;;41.03;18.30;;;;;;;;;;5092648;28;20020;-72
2022/12/20 05:09:57;;;;;;;34.67;16.65;;;;;;;;;;5092314;28;20027;-73
2022/12/20 05:12:22;;;;;;;36.85;17.25;;;;;;;;;;5092425;28;20024;-73
2022/12/20 05:14:47;;;;;;;41.05;19.38;;;;;;;;;;5092259;28;20127;-72
2022/12/20 05:17:13;;;;;;;38.80;16.38;;;;;;;;;;5091630;28;20057;-73
2022/12/20 05:19:38;;;;;;;31.83;15.45;;;;;;;;;;5093433;28;20044;-73
2022/12/20 05:27:31;;;;;;;39.65;17.50;;;;;;;;;;5093703;28;20027;-73
2022/12/20 05:29:57;;;;;;;35.22;16.88;;;;;;;;;;5091978;28;20020;-72
2022/12/20 05:32:22;;;;;;;34.28;17.60;;;;;;;;;;5091955;28;20057;-72
2022/12/20 05:34:48;;;;;;;34.03;16.10;;;;;;;;;;5091385;28;20465;-74
2022/12/20 05:37:13;;;;;;;26.73;14.25;;;;;;;;;;5091360;28;20040;-71
2022/12/20 05:39:38;;;;;;;30.00;14.23;;;;;;;;;;5093214;28;20066;-71
2022/12/20 05:42:04;;;;;;;26.77;14.05;;;;;;;;;;5091910;28;20525;-72
2022/12/20 05:44:29;;;;;;;40.63;15.68;;;;;;;;;;5093046;28;20012;-71
2022/12/20 05:46:55;;;;;;;25.88;11.85;;;;;;;;;;5091757;28;20019;-71
2022/12/20 05:49:20;;;;;;;32.13;13.68;;;;;;;;;;5091381;28;20358;-71
2022/12/20 05:51:45;;;;;;;27.10;13.05;;;;;;;;;;5090936;28;20115;-71
2022/12/20 05:54:11;;;;;;;29.48;13.57;;;;;;;;;;5091499;28;20464;-71
2022/12/20 05:56:36;;;;;;;28.73;14.55;;;;;;;;;;5091022;28;20047;-72
2022/12/20 05:59:02;;;;;;;19.58;10.65;;;;;;;;;;5090487;28;20074;-73
2022/12/20 06:01:27;;;;;;;19.95;11.80;;;;;;;;;;5091080;28;20047;-72
2022/12/20 06:03:53;;;;;;;32.13;14.75;;;;;;;;;;5090766;28;20020;-71
2022/12/20 06:06:18;;;;;;;25.05;13.27;;;;;;;;;;5090641;28;20024;-72
2022/12/20 06:08:44;;;;;;;25.52;12.70;;;;;;;;;;5091050;28;20016;-74
2022/12/20 06:11:09;;;;;;;33.38;15.73;;;;;;;;;;5090676;28;20102;-73
2022/12/20 06:13:35;;;;;;;36.45;17.08;;;;;;;;;;5092491;28;20425;-72
2022/12/20 06:16:00;;;;;;;23.85;11.95;;;;;;;;;;5091202;28;20016;-71
2022/12/20 06:18:25;;;;;;;20.65;11.43;;;;;;;;;;5091909;28;20016;-70
2022/12/20 06:20:51;;;;;;;22.77;10.38;;;;;;;;;;5090073;28;20020;-72
2022/12/20 06:23:17;;;;;;;19.63;10.82;;;;;;;;;;5090331;28;20032;-72
2022/12/20 06:25:42;;;;;;;22.70;11.30;;;;;;;;;;5092425;28;20369;-71
2022/12/20 06:28:08;;;;;;;21.20;11.23;;;;;;;;;;5090952;28;20468;-73
2022/12/20 06:30:34;;;;;;;19.70;11.43;;;;;;;;;;5091864;28;20425;-72
2022/12/20 06:33:00;;;;;;;22.48;11.48;;;;;;;;;;5089978;28;20035;-72
2022/12/20 06:35:26;;;;;;;21.98;12.07;;;;;;;;;;5090416;28;20043;-71
2022/12/20 06:37:51;;;;;;;20.50;11.38;;;;;;;;;;5090515;28;20468;-70
2022/12/20 06:40:17;;;;;;;23.23;11.27;;;;;;;;;;5090081;28;20046;-72
2022/12/20 06:42:43;;;;;;;19.60;11.68;;;;;;;;;;5090870;28;20158;-72
2022/12/20 06:45:09;;;;;;;19.42;10.40;;;;;;;;;;5089836;28;20566;-72
2022/12/20 06:47:34;;;;;;;17.20;10.25;;;;;;;;;;5091440;28;20035;-72
2022/12/20 06:49:59;;;;;;;24.45;12.15;;;;;;;;;;5089754;28;20020;-73
2022/12/20 06:52:25;;;;;;;20.35;10.95;;;;;;;;;;5089967;28;20031;-72
2022/12/20 06:54:50;;;;;;;21.40;11.27;;;;;;;;;;5091613;28;20020;-73
2022/12/20 06:57:16;;;;;;;37.47;23.38;;;;;;;;;;5091467;28;20020;-72
2022/12/20 06:59:42;;;;;;;21.63;11.77;;;;;;;;;;5090758;28;20084;-73
2022/12/20 07:02:09;;;;;;;21.50;11.30;;;;;;;;;;5089316;28;20051;-72
2022/12/20 07:04:34;;;;;;;18.10;9.63;;;;;;;;;;5090685;28;20063;-72
2022/12/20 07:07:00;;;;;;;25.20;11.35;;;;;;;;;;5089744;28;20048;-73
2022/12/20 07:09:25;;;;;;;19.88;10.68;;;;;;;;;;5089642;28;20084;-73
2022/12/20 07:11:51;;;;;;;29.50;14.27;;;;;;;;;;5089656;28;20020;-73
2022/12/20 07:14:16;;;;;;;26.75;14.75;;;;;;;;;;5089030;28;20020;-73
2022/12/20 07:16:42;;;;;;;20.00;10.82;;;;;;;;;;5090483;28;20024;-73
2022/12/20 07:19:11;;;;;;;17.88;10.57;;;;;;;;;;5090673;28;20099;-72
2022/12/20 07:21:36;;;;;;;17.13;9.70;;;;;;;;;;5093244;28;20167;-72
2022/12/20 07:24:02;;;;;;;17.45;9.88;;;;;;;;;;5095565;28;20095;-72
2022/12/20 07:26:27;;;;;;;18.27;10.50;;;;;;;;;;5093759;28;20017;-73
2022/12/20 07:28:53;;;;;;;17.90;9.32;;;;;;;;;;5093628;28;20024;-73
2022/12/20 07:31:18;;;;;;;19.85;9.25;;;;;;;;;;5092695;28;20050;-73
2022/12/20 07:33:44;;;;;;;16.67;9.27;;;;;;;;;;5092032;28;20052;-71
2022/12/20 07:36:10;;;;;;;21.40;10.25;;;;;;;;;;5093327;28;20031;-71
2022/12/20 07:38:36;;;;;;;20.35;10.93;;;;;;;;;;5093192;28;20419;-73
2022/12/20 07:41:06;;;;;;;32.08;10.00;;;;;;;;;;5094168;28;20061;-73
2022/12/20 07:43:32;;;;;;;17.52;9.52;;;;;;;;;;5093047;28;20088;-73
2022/12/20 07:45:58;;;;;;;15.05;9.55;;;;;;;;;;5094184;28;20016;-73
2022/12/20 07:48:23;;;;;;;18.10;10.30;;;;;;;;;;5092462;28;20122;-73
2022/12/20 07:50:50;;;;;;;17.55;10.43;;;;;;;;;;5093182;28;20027;-72
2022/12/20 07:53:16;;;;;;;16.52;8.63;;;;;;;;;;5092881;28;20017;-72
2022/12/20 07:55:42;;;;;;;17.10;9.18;;;;;;;;;;5093474;28;20091;-72
2022/12/20 07:58:09;;;;;;;15.80;10.45;;;;;;;;;;5094028;28;20528;-70
2022/12/20 08:00:35;;;;;;;14.65;8.52;;;;;;;;;;5092756;28;20077;-73
2022/12/20 08:03:03;;;;;;;16.15;9.13;;;;;;;;;;5092316;28;20035;-73
2022/12/20 08:05:29;;;;;;;14.63;7.43;;;;;;;;;;5094397;28;20087;-73
2022/12/20 08:07:58;;;;;;;13.68;8.70;;;;;;;;;;5092696;28;20048;-73
2022/12/20 08:10:23;;;;;;;14.80;8.57;;;;;;;;;;5092219;28;20476;-73
2022/12/20 08:12:49;;;;;;;17.15;9.23;;;;;;;;;;5092728;28;20016;-73
2022/12/20 08:15:14;;;;;;;15.38;9.02;;;;;;;;;;5092386;28;20020;-74
2022/12/20 08:17:40;;;;;;;14.50;8.18;;;;;;;;;;5092756;28;20052;-72
2022/12/20 08:20:07;;;;;;;13.45;8.77;;;;;;;;;;5092527;28;20073;-72
2022/12/20 08:22:33;;;;;;;15.70;9.43;;;;;;;;;;5092634;28;20028;-72
2022/12/20 08:24:58;;;;;;;12.80;8.18;;;;;;;;;;5092533;28;20027;-75
2022/12/20 08:27:24;;;;;;;15.02;7.28;;;;;;;;;;5094295;28;20051;-73
2022/12/20 08:29:49;;;;;;;16.70;8.43;;;;;;;;;;5092715;28;20017;-74
2022/12/20 08:32:15;;;;;;;19.27;11.25;;;;;;;;;;5094242;28;20453;-73
2022/12/20 08:34:40;;;;;;;16.15;8.18;;;;;;;;;;5092274;28;20165;-73
2022/12/20 08:37:06;;;;;;;10.68;7.38;;;;;;;;;;5093771;28;20111;-74
2022/12/20 08:39:31;;;;;;;11.48;7.30;;;;;;;;;;5093956;28;20012;-75
2022/12/20 08:41:57;;;;;;;14.25;7.43;;;;;;;;;;5091694;28;20102;-75
2022/12/20 08:44:22;;;;;;;11.63;6.55;;;;;;;;;;5091565;28;20020;-74
2022/12/20 08:46:48;;;;;;;11.52;7.45;;;;;;;;;;5092332;28;20181;-73
2022/12/20 08:49:13;;;;;;;11.10;7.47;;;;;;;;;;5093513;28;20460;-74
2022/12/20 08:51:38;;;;;;;13.15;7.50;;;;;;;;;;5093928;28;20028;-74
2022/12/20 08:54:04;;;;;;;11.48;7.45;;;;;;;;;;5093137;28;20504;-75
2022/12/20 08:56:29;;;;;;;11.13;6.88;;;;;;;;;;5092362;28;20092;-72
2022/12/20 08:58:55;;;;;;;11.63;7.05;;;;;;;;;;5091782;28;20419;-73
2022/12/20 09:01:21;;;;;;;11.05;7.13;;;;;;;;;;5091468;28;20022;-75
2022/12/20 09:03:47;;;;;;;11.30;7.15;;;;;;;;;;5093169;28;20032;-74
2022/12/20 09:06:14;;;;;;;10.93;6.72;;;;;;;;;;5093249;28;20031;-75
2022/12/20 09:08:40;;;;;;;11.07;6.60;;;;;;;;;;5091731;28;20024;-74
2022/12/20 09:11:07;;;;;;;9.50;6.25;;;;;;;;;;5091432;28;20065;-75
2022/12/20 09:13:32;;;;;;;9.82;6.18;;;;;;;;;;5092280;28;20078;-75
2022/12/20 09:16:01;;;;;;;8.90;5.50;;;;;;;;;;5091526;28;20507;-75
2022/12/20 09:18:27;;;;;;;11.52;6.20;;;;;;;;;;5091923;28;20459;-75
2022/12/20 09:20:52;;;;;;;10.73;5.88;;;;;;;;;;5093170;28;20053;-75
2022/12/20 09:23:18;;;;;;;10.68;6.03;;;;;;;;;;5091396;28;20216;-75
2022/12/20 09:25:44;;;;;;;10.05;6.82;;;;;;;;;;5091632;28;20051;-76
2022/12/20 09:28:09;;;;;;;11.30;6.00;;;;;;;;;;5093087;28;20032;-76
2022/12/20 09:30:34;;;;;;;13.52;7.13;;;;;;;;;;5091653;28;20066;-75
2022/12/20 09:33:00;;;;;;;17.55;8.10;;;;;;;;;;5091540;28;20077;-75
2022/12/20 09:35:25;;;;;;;13.55;6.85;;;;;;;;;;5091216;28;20020;-74
2022/12/20 09:37:51;;;;;;;17.85;7.57;;;;;;;;;;5091551;28;20016;-75
2022/12/20 09:40:17;;;;;;;19.17;8.75;;;;;;;;;;5092912;28;20016;-75
2022/12/20 09:42:43;;;;;;;36.58;13.23;;;;;;;;;;5090580;28;20077;-76
2022/12/20 09:45:11;;;;;;;21.25;10.10;;;;;;;;;;5090944;28;20028;-75
2022/12/20 09:47:38;;;;;;;32.90;16.05;;;;;;;;;;5090862;28;20020;-75
2022/12/20 09:50:03;;;;;;;21.73;9.30;;;;;;;;;;5092087;28;20016;-75
2022/12/20 09:52:29;;;;;;;19.33;8.98;;;;;;;;;;5090711;28;20032;-75
2022/12/20 09:55:01;;;;;;;16.00;8.45;;;;;;;;;;5089830;28;20065;-75
2022/12/20 09:57:32;;;;;;;16.42;8.05;;;;;;;;;;5090883;28;20404;-76
2022/12/20 09:59:58;;;;;;;14.75;8.43;;;;;;;;;;5090530;28;20051;-75
2022/12/20 10:02:24;;;;;;;14.07;8.35;;;;;;;;;;5090851;28;20024;-75
2022/12/20 10:04:50;;;;;;;12.88;8.15;;;;;;;;;;5090362;28;20421;-75
2022/12/20 10:07:19;;;;;;;13.65;7.93;;;;;;;;;;5090428;28;20447;-75
2022/12/20 10:10:03;;;;;;;14.50;7.90;;;;;;;;;;5090856;28;20475;-75
2022/12/20 10:12:28;;;;;;;13.60;7.32;;;;;;;;;;5090924;28;20020;-77
2022/12/20 10:14:57;;;;;;;15.55;8.10;;;;;;;;;;5090729;28;20023;-74
2022/12/20 10:17:42;;;;;;;13.48;7.32;;;;;;;;;;5090555;28;20111;-75
2022/12/20 10:20:14;;;;;;;15.45;7.60;;;;;;;;;;5090124;28;20432;-75
2022/12/20 10:23:00;;;;;;;14.63;7.82;;;;;;;;;;5091417;28;20036;-75
2022/12/20 10:25:33;;;;;;;12.73;7.30;;;;;;;;;;5088746;28;20032;-76
2022/12/20 10:28:01;;;;;;;14.88;8.15;;;;;;;;;;5089799;28;20028;-75
2022/12/20 10:30:27;;;;;;;12.18;7.57;;;;;;;;;;5090316;28;20027;-75
2022/12/20 10:32:54;;;;;;;12.63;8.10;;;;;;;;;;5090310;28;20044;-75
2022/12/20 10:35:27;;;;;;;34.17;22.40;;;;;;;;;;5089770;28;20366;-75
2022/12/20 10:37:59;;;;;;;18.58;11.68;;;;;;;;;;5090931;28;20016;-74
2022/12/20 10:40:29;;;;;;;15.48;8.90;;;;;;;;;;5090157;28;20020;-75
2022/12/20 10:42:54;;;;;;;15.70;8.00;;;;;;;;;;5089675;28;20039;-76
2022/12/20 10:45:20;;;;;;;10.80;6.57;;;;;;;;;;5091172;28;20112;-75
2022/12/20 10:47:46;;;;;;;11.90;6.45;;;;;;;;;;5090255;28;20075;-76
2022/12/20 10:50:17;;;;;;;11.07;7.03;;;;;;;;;;5089634;28;20487;-74
2022/12/20 10:52:44;;;;;;;10.50;7.28;;;;;;;;;;5090255;28;20448;-75
2022/12/20 10:55:28;;;;;;;12.43;7.60;;;;;;;;;;5095867;28;20024;-76
2022/12/20 10:57:53;;;;;;;11.52;7.22;;;;;;;;;;5093185;28;20061;-76
2022/12/20 11:00:29;;;;;;;15.93;8.50;;;;;;;;;;5093883;28;20349;-75
2022/12/20 11:03:15;;;;;;;14.18;7.70;;;;;;;;;;5094068;28;20553;-75
2022/12/20 11:05:52;;;;;;;18.25;10.88;;;;;;;;;;5094056;28;20020;-75
2022/12/20 11:08:18;;;;;;;10.80;6.95;;;;;;;;;;5093696;28;20444;-75
2022/12/20 11:10:44;;;;;;;13.90;7.78;;;;;;;;;;5094542;28;20023;-76
2022/12/20 11:13:39;;;;;;;10.18;6.45;;;;;;;;;;5093528;28;20016;-76
2022/12/20 11:16:05;;;;;;;12.07;7.07;;;;;;;;;;5081776;28;20039;-75
2022/12/20 11:18:33;;;;;;;14.30;7.80;;;;;;;;;;5094506;28;20388;-75
2022/12/20 11:21:05;;;;;;;11.77;7.07;;;;;;;;;;5094089;28;20020;-76
2022/12/20 11:23:36;;;;;;;9.80;7.22;;;;;;;;;;5093989;28;20115;-76
2022/12/20 11:26:08;;;;;;;12.02;8.10;;;;;;;;;;5094105;28;20472;-75
2022/12/20 11:28:46;;;;;;;11.00;7.57;;;;;;;;;;5095475;28;20020;-76
2022/12/20 11:31:41;;;;;;;10.90;7.03;;;;;;;;;;5093796;28;20104;-76
2022/12/20 11:34:21;;;;;;;16.23;7.68;;;;;;;;;;5095783;28;20495;-75
2022/12/20 11:36:56;;;;;;;10.07;7.15;;;;;;;;;;5095366;28;20043;-75
2022/12/20 11:39:29;;;;;;;15.07;8.35;;;;;;;;;;5094260;28;20496;-76
2022/12/20 11:42:11;;;;;;;13.18;7.13;;;;;;;;;;5093931;28;20028;-76
2022/12/20 11:44:57;;;;;;;15.32;8.95;;;;;;;;;;5095533;28;20020;-76
2022/12/20 11:47:28;;;;;;;12.13;7.50;;;;;;;;;;5051979;28;20027;-75
2022/12/20 11:50:00;;;;;;;11.73;8.63;;;;;;;;;;5093221;28;20047;-75
2022/12/20 11:52:32;;;;;;;11.45;7.43;;;;;;;;;;5094123;28;20027;-75
2022/12/20 11:55:20;;;;;;;11.82;7.85;;;;;;;;;;5094465;28;20027;-75
2022/12/20 11:57:45;;;;;;;9.80;6.95;;;;;;;;;;5093152;28;20415;-75
2022/12/20 12:00:13;;;;;;;12.45;8.00;;;;;;;;;;5093311;28;20098;-76
2022/12/20 12:02:42;;;;;;;13.23;7.68;;;;;;;;;;5093548;28;20088;-76
2022/12/20 12:05:20;;;;;;;10.73;7.07;;;;;;;;;;5094294;28;20075;-76
2022/12/20 12:07:48;;;;;;;10.98;8.05;;;;;;;;;;5094276;28;20069;-76
2022/12/20 12:10:20;;;;;;;11.90;7.03;;;;;;;;;;5092709;28;20341;-75
2022/12/20 12:12:47;;;;;;;11.25;8.20;;;;;;;;;;5093577;28;20031;-76
2022/12/20 12:15:31;;;;;;;14.65;9.95;;;;;;;;;;5094149;28;20020;-74
2022/12/20 12:18:04;;;;;;;16.55;9.00;;;;;;;;;;5094881;28;20114;-76
2022/12/20 12:20:48;;;;;;;16.90;9.93;;;;;;;;;;5094318;28;20099;-74
2022/12/20 12:23:34;;;;;;;10.00;7.18;;;;;;;;;;5094003;28;20028;-75
2022/12/20 12:26:03;;;;;;;9.25;7.63;;;;;;;;;;5093575;28;20058;-77
2022/12/20 12:28:29;;;;;;;14.23;8.07;;;;;;;;;;5093285;28;20032;-76
2022/12/20 12:31:15;;;;;;;10.98;7.90;;;;;;;;;;5093107;28;20016;-75
2022/12/20 12:34:13;;;;;;;14.93;7.20;;;;;;;;;;5092675;28;20332;-81
2022/12/20 12:36:51;;;;;;;12.93;7.28;;;;;;;;;;5060720;28;20094;-77
2022/12/20 12:39:16;;;;;;;14.13;6.93;;;;;;;;;;5093155;28;20028;-78
2022/12/20 12:42:00;;;;;;;26.20;15.82;;;;;;;;;;5093449;28;20027;-79
2022/12/20 12:44:26;;;;;;;10.90;6.65;;;;;;;;;;5093900;28;20008;-78
2022/12/20 12:46:56;;;;;;;11.05;6.95;;;;;;;;;;5095252;28;20380;-78
2022/12/20 12:49:25;;;;;;;11.32;7.35;;;;;;;;;;5093421;28;20392;-78
2022/12/20 12:51:54;;;;;;;9.32;6.60;;;;;;;;;;5092865;28;20376;-78
2022/12/20 12:54:23;;;;;;;14.82;7.63;;;;;;;;;;5092799;28;20060;-78
2022/12/20 12:56:49;;;;;;;12.68;7.95;;;;;;;;;;5094172;28;20031;-77
2022/12/20 12:59:20;;;;;;;11.52;7.25;;;;;;;;;;5092552;28;20096;-78
2022/12/20 13:01:48;;;;;;;10.55;6.85;;;;;;;;;;5093175;28;20023;-77
2022/12/20 13:04:21;;;;;;;8.68;6.72;;;;;;;;;;5093080;28;20024;-78
2022/12/20 13:06:46;;;;;;;32.00;15.98;;;;;;;;;;5093580;28;20043;-79
2022/12/20 13:09:24;;;;;;;12.32;8.27;;;;;;;;;;5093606;28;20457;-79
2022/12/20 13:11:52;;;;;;;11.20;6.50;;;;;;;;;;5093136;28;20043;-80
2022/12/20 13:14:23;;;;;;;9.52;6.28;;;;;;;;;;5094002;28;20526;-79
2022/12/20 13:17:09;;;;;;;10.43;6.00;;;;;;;;;;5091254;28;20042;-79
2022/12/20 13:19:35;;;;;;;7.72;5.93;;;;;;;;;;5051284;28;20152;-78
2022/12/20 13:22:16;;;;;;;10.15;5.82;;;;;;;;;;5092313;28;20030;-78
2022/12/20 13:24:45;;;;;;;10.27;5.80;;;;;;;;;;5093778;28;20020;-78
2022/12/20 13:27:17;;;;;;;9.13;5.65;;;;;;;;;;5092464;28;20012;-78
2022/12/20 13:29:54;;;;;;;11.95;5.80;;;;;;;;;;5092676;28;20087;-80
2022/12/20 13:32:38;;;;;;;10.35;6.68;;;;;;;;;;5092578;28;20028;-79
2022/12/20 13:35:24;;;;;;;12.10;5.97;;;;;;;;;;5092628;28;20023;-79
2022/12/20 13:37:50;;;;;;;16.08;6.63;;;;;;;;;;5091506;28;20460;-79
2022/12/20 13:40:22;;;;;;;9.25;6.50;;;;;;;;;;5092508;28;20070;-80
2022/12/20 13:42:50;;;;;;;11.30;6.32;;;;;;;;;;5092431;28;20032;-81
2022/12/20 13:45:16;;;;;;;8.80;6.38;;;;;;;;;;5091872;28;20056;-81
2022/12/20 13:47:45;;;;;;;14.25;7.55;;;;;;;;;;5093383;28;20427;-79
2022/12/20 13:50:30;;;;;;;9.65;5.90;;;;;;;;;;5093631;28;20443;-79
2022/12/20 13:52:57;;;;;;;6.78;5.35;;;;;;;;;;5093889;28;20055;-79
2022/12/20 13:55:31;;;;;;;8.60;6.30;;;;;;;;;;5091670;28;20388;-80
2022/12/20 13:57:57;;;;;;;8.25;5.82;;;;;;;;;;5091907;28;20409;-80
2022/12/20 14:00:27;;;;;;;10.80;6.43;;;;;;;;;;5093429;28;20058;-79
2022/12/20 14:02:52;;;;;;;11.63;6.18;;;;;;;;;;5092058;28;20070;-77
2022/12/20 14:05:30;;;;;;;9.02;6.20;;;;;;;;;;5075438;28;20463;-80
2022/12/20 14:07:55;;;;;;;9.07;6.90;;;;;;;;;;5092443;28;20030;-81
2022/12/20 14:10:25;;;;;;;11.57;7.80;;;;;;;;;;5092372;28;20111;-81
2022/12/20 14:12:51;;;;;;;10.38;6.65;;;;;;;;;;5093059;28;20052;-81
2022/12/20 14:15:27;;;;;;;15.85;6.97;;;;;;;;;;5091460;28;20048;-82
2022/12/20 14:17:53;;;;;;;15.07;7.53;;;;;;;;;;5091370;28;20045;-80
2022/12/20 14:20:22;;;;;;;12.30;6.95;;;;;;;;;;5091641;28;20405;-79
2022/12/20 14:22:51;;;;;;;11.55;7.38;;;;;;;;;;5091971;28;20564;-80
2022/12/20 14:25:20;;;;;;;10.52;7.05;;;;;;;;;;5092839;28;20510;-80
2022/12/20 14:27:47;;;;;;;8.60;6.20;;;;;;;;;;5091724;28;20032;-81
2022/12/20 14:30:24;;;;;;;15.43;6.30;;;;;;;;;;5092607;28;20469;-80
2022/12/20 14:32:51;;;;;;;10.68;6.53;;;;;;;;;;5091960;28;20019;-80
2022/12/20 14:35:18;;;;;;;9.77;6.85;;;;;;;;;;5091204;28;20019;-80
2022/12/20 14:37:51;;;;;;;8.95;5.82;;;;;;;;;;5091608;28;20097;-80
2022/12/20 14:40:18;;;;;;;8.95;6.25;;;;;;;;;;5090665;28;20030;-80
2022/12/20 14:42:44;;;;;;;9.65;5.90;;;;;;;;;;5092320;28;20058;-77